sensor_id;sensor_type;location;lat;lon;timestamp;P1;durP1;ratioP1;P2;durP2;ratioP2
62903;SDS011;49000;50.698;13.322;2023-02-18T00:01:24;6.00;;;4.53;;
62903;SDS011;49000;50.698;13.322;2023-02-18T00:03:50;9.97;;;5.83;;
62903;SDS011;49000;50.698;13.322;2023-02-18T00:06:21;9.23;;;5.07;;
62903;SDS011;49000;50.698;13.322;2023-02-18T00:08:48;7.77;;;5.10;;
62903;SDS011;49000;50.698;13.322;2023-02-18T00:11:15;8.30;;;5.30;;
62903;SDS011;49000;50.698;13.322;2023-02-18T00:13:41;8.20;;;6.40;;
62903;SDS011;49000;50.698;13.322;2023-02-18T00:16:08;9.37;;;6.07;;
62903;SDS011;49000;50.698;13.322;2023-02-18T00:18:36;7.77;;;5.60;;
62903;SDS011;49000;50.698;13.322;2023-02-18T00:21:02;10.73;;;6.27;;
62903;SDS011;49000;50.698;13.322;2023-02-18T00:23:29;9.63;;;6.80;;
62903;SDS011;49000;50.698;13.322;2023-02-18T00:26:01;10.90;;;6.63;;
62903;SDS011;49000;50.698;13.322;2023-02-18T00:28:31;10.03;;;6.73;;
62903;SDS011;49000;50.698;13.322;2023-02-18T00:30:57;9.27;;;6.90;;
62903;SDS011;49000;50.698;13.322;2023-02-18T00:33:22;9.53;;;6.70;;
62903;SDS011;49000;50.698;13.322;2023-02-18T00:35:48;12.43;;;8.43;;
62903;SDS011;49000;50.698;13.322;2023-02-18T00:38:13;11.87;;;8.23;;
62903;SDS011;49000;50.698;13.322;2023-02-18T00:40:39;13.57;;;7.97;;
62903;SDS011;49000;50.698;13.322;2023-02-18T00:43:05;12.27;;;7.53;;
62903;SDS011;49000;50.698;13.322;2023-02-18T00:45:31;8.90;;;6.43;;
62903;SDS011;49000;50.698;13.322;2023-02-18T00:47:56;8.30;;;5.20;;
62903;SDS011;49000;50.698;13.322;2023-02-18T00:50:22;9.33;;;5.10;;
62903;SDS011;49000;50.698;13.322;2023-02-18T00:52:47;6.90;;;4.40;;
62903;SDS011;49000;50.698;13.322;2023-02-18T00:55:13;7.90;;;5.77;;
62903;SDS011;49000;50.698;13.322;2023-02-18T00:57:38;8.77;;;5.70;;
62903;SDS011;49000;50.698;13.322;2023-02-18T01:00:05;9.17;;;5.40;;
62903;SDS011;49000;50.698;13.322;2023-02-18T01:02:31;8.27;;;6.27;;
62903;SDS011;49000;50.698;13.322;2023-02-18T01:04:57;9.77;;;5.97;;
62903;SDS011;49000;50.698;13.322;2023-02-18T01:07:22;9.73;;;6.27;;
62903;SDS011;49000;50.698;13.322;2023-02-18T01:09:48;9.80;;;6.53;;
62903;SDS011;49000;50.698;13.322;2023-02-18T01:12:13;13.53;;;6.83;;
62903;SDS011;49000;50.698;13.322;2023-02-18T01:14:39;8.20;;;6.20;;
62903;SDS011;49000;50.698;13.322;2023-02-18T01:17:04;12.00;;;7.20;;
62903;SDS011;49000;50.698;13.322;2023-02-18T01:19:30;12.80;;;6.60;;
62903;SDS011;49000;50.698;13.322;2023-02-18T01:21:56;11.60;;;7.00;;
62903;SDS011;49000;50.698;13.322;2023-02-18T01:24:21;12.30;;;8.03;;
62903;SDS011;49000;50.698;13.322;2023-02-18T01:26:46;9.43;;;6.70;;
62903;SDS011;49000;50.698;13.322;2023-02-18T01:29:12;9.87;;;6.83;;
62903;SDS011;49000;50.698;13.322;2023-02-18T01:31:37;13.17;;;8.13;;
62903;SDS011;49000;50.698;13.322;2023-02-18T01:34:03;12.33;;;7.07;;
62903;SDS011;49000;50.698;13.322;2023-02-18T01:36:28;9.77;;;6.70;;
62903;SDS011;49000;50.698;13.322;2023-02-18T01:38:54;13.33;;;7.17;;
62903;SDS011;49000;50.698;13.322;2023-02-18T01:41:19;11.90;;;8.70;;
62903;SDS011;49000;50.698;13.322;2023-02-18T01:43:45;10.07;;;7.00;;
62903;SDS011;49000;50.698;13.322;2023-02-18T01:48:54;14.27;;;8.57;;
62903;SDS011;49000;50.698;13.322;2023-02-18T01:51:26;13.70;;;8.47;;
62903;SDS011;49000;50.698;13.322;2023-02-18T01:53:57;13.93;;;8.80;;
62903;SDS011;49000;50.698;13.322;2023-02-18T01:56:34;13.80;;;8.77;;
62903;SDS011;49000;50.698;13.322;2023-02-18T01:59:06;13.77;;;9.33;;
62903;SDS011;49000;50.698;13.322;2023-02-18T02:01:36;13.43;;;9.43;;
62903;SDS011;49000;50.698;13.322;2023-02-18T02:04:05;15.47;;;8.93;;
62903;SDS011;49000;50.698;13.322;2023-02-18T02:06:30;14.70;;;9.93;;
62903;SDS011;49000;50.698;13.322;2023-02-18T02:08:56;15.23;;;8.70;;
62903;SDS011;49000;50.698;13.322;2023-02-18T02:11:30;14.10;;;8.97;;
62903;SDS011;49000;50.698;13.322;2023-02-18T02:19:34;15.87;;;8.80;;
62903;SDS011;49000;50.698;13.322;2023-02-18T02:25:29;14.67;;;9.30;;
62903;SDS011;49000;50.698;13.322;2023-02-18T02:28:29;17.43;;;10.37;;
62903;SDS011;49000;50.698;13.322;2023-02-18T02:37:13;15.70;;;9.00;;
62903;SDS011;49000;50.698;13.322;2023-02-18T02:45:48;13.23;;;9.30;;
62903;SDS011;49000;50.698;13.322;2023-02-18T02:53:53;15.90;;;9.43;;
62903;SDS011;49000;50.698;13.322;2023-02-18T02:56:21;13.77;;;9.17;;
62903;SDS011;49000;50.698;13.322;2023-02-18T02:58:58;11.67;;;7.43;;
62903;SDS011;49000;50.698;13.322;2023-02-18T03:04:37;11.67;;;6.30;;
62903;SDS011;49000;50.698;13.322;2023-02-18T03:07:55;11.77;;;6.37;;
62903;SDS011;49000;50.698;13.322;2023-02-18T03:10:40;12.00;;;6.50;;
62903;SDS011;49000;50.698;13.322;2023-02-18T03:13:15;14.33;;;6.77;;
62903;SDS011;49000;50.698;13.322;2023-02-18T03:18:30;11.50;;;5.40;;
62903;SDS011;49000;50.698;13.322;2023-02-18T03:21:11;9.10;;;6.03;;
62903;SDS011;49000;50.698;13.322;2023-02-18T03:23:45;12.63;;;6.10;;
62903;SDS011;49000;50.698;13.322;2023-02-18T03:26:28;9.90;;;4.90;;
62903;SDS011;49000;50.698;13.322;2023-02-18T03:28:56;8.73;;;5.57;;
62903;SDS011;49000;50.698;13.322;2023-02-18T03:31:26;8.30;;;4.43;;
62903;SDS011;49000;50.698;13.322;2023-02-18T03:34:14;7.37;;;4.10;;
62903;SDS011;49000;50.698;13.322;2023-02-18T03:36:42;6.03;;;3.90;;
62903;SDS011;49000;50.698;13.322;2023-02-18T03:39:10;5.47;;;3.47;;
62903;SDS011;49000;50.698;13.322;2023-02-18T03:41:38;8.33;;;3.63;;
62903;SDS011;49000;50.698;13.322;2023-02-18T03:44:05;6.07;;;3.53;;
62903;SDS011;49000;50.698;13.322;2023-02-18T03:46:32;5.50;;;3.30;;
62903;SDS011;49000;50.698;13.322;2023-02-18T03:48:59;5.73;;;3.00;;
62903;SDS011;49000;50.698;13.322;2023-02-18T03:51:24;5.77;;;2.93;;
62903;SDS011;49000;50.698;13.322;2023-02-18T03:53:50;9.90;;;3.23;;
62903;SDS011;49000;50.698;13.322;2023-02-18T03:56:16;4.80;;;2.50;;
62903;SDS011;49000;50.698;13.322;2023-02-18T03:58:41;4.63;;;2.77;;
62903;SDS011;49000;50.698;13.322;2023-02-18T04:01:07;5.17;;;2.90;;
62903;SDS011;49000;50.698;13.322;2023-02-18T04:03:33;5.80;;;3.00;;
62903;SDS011;49000;50.698;13.322;2023-02-18T04:05:58;4.73;;;2.93;;
62903;SDS011;49000;50.698;13.322;2023-02-18T04:08:24;6.70;;;3.70;;
62903;SDS011;49000;50.698;13.322;2023-02-18T04:10:49;6.57;;;4.20;;
62903;SDS011;49000;50.698;13.322;2023-02-18T04:13:15;5.63;;;3.60;;
62903;SDS011;49000;50.698;13.322;2023-02-18T04:15:41;7.23;;;4.00;;
62903;SDS011;49000;50.698;13.322;2023-02-18T04:18:12;8.33;;;4.73;;
62903;SDS011;49000;50.698;13.322;2023-02-18T04:20:38;7.77;;;4.50;;
62903;SDS011;49000;50.698;13.322;2023-02-18T04:23:04;10.37;;;5.80;;
62903;SDS011;49000;50.698;13.322;2023-02-18T04:25:29;11.83;;;6.40;;
62903;SDS011;49000;50.698;13.322;2023-02-18T04:27:55;10.77;;;5.33;;
62903;SDS011;49000;50.698;13.322;2023-02-18T04:30:20;9.97;;;5.37;;
62903;SDS011;49000;50.698;13.322;2023-02-18T04:32:46;9.27;;;5.80;;
62903;SDS011;49000;50.698;13.322;2023-02-18T04:35:12;10.17;;;5.67;;
62903;SDS011;49000;50.698;13.322;2023-02-18T04:37:37;7.90;;;5.27;;
62903;SDS011;49000;50.698;13.322;2023-02-18T04:40:03;7.07;;;5.00;;
62903;SDS011;49000;50.698;13.322;2023-02-18T04:42:29;7.93;;;4.77;;
62903;SDS011;49000;50.698;13.322;2023-02-18T04:44:54;9.67;;;6.20;;
62903;SDS011;49000;50.698;13.322;2023-02-18T04:47:20;9.77;;;5.80;;
62903;SDS011;49000;50.698;13.322;2023-02-18T04:49:45;8.37;;;5.43;;
62903;SDS011;49000;50.698;13.322;2023-02-18T04:52:11;9.50;;;5.50;;
62903;SDS011;49000;50.698;13.322;2023-02-18T04:54:36;5.57;;;3.87;;
62903;SDS011;49000;50.698;13.322;2023-02-18T04:57:02;6.07;;;4.20;;
62903;SDS011;49000;50.698;13.322;2023-02-18T04:59:27;8.60;;;4.03;;
62903;SDS011;49000;50.698;13.322;2023-02-18T05:01:53;8.13;;;4.30;;
62903;SDS011;49000;50.698;13.322;2023-02-18T05:04:18;7.53;;;4.13;;
62903;SDS011;49000;50.698;13.322;2023-02-18T05:06:44;6.83;;;3.83;;
62903;SDS011;49000;50.698;13.322;2023-02-18T05:09:10;4.77;;;2.90;;
62903;SDS011;49000;50.698;13.322;2023-02-18T05:11:36;5.00;;;3.03;;
62903;SDS011;49000;50.698;13.322;2023-02-18T05:14:01;4.83;;;2.80;;
62903;SDS011;49000;50.698;13.322;2023-02-18T05:16:27;5.17;;;2.77;;
62903;SDS011;49000;50.698;13.322;2023-02-18T05:18:53;5.73;;;3.07;;
62903;SDS011;49000;50.698;13.322;2023-02-18T05:21:18;3.60;;;2.40;;
62903;SDS011;49000;50.698;13.322;2023-02-18T05:23:44;4.67;;;2.50;;
62903;SDS011;49000;50.698;13.322;2023-02-18T05:26:09;3.53;;;2.10;;
62903;SDS011;49000;50.698;13.322;2023-02-18T05:28:35;3.00;;;1.77;;
62903;SDS011;49000;50.698;13.322;2023-02-18T05:31:00;3.23;;;1.93;;
62903;SDS011;49000;50.698;13.322;2023-02-18T05:33:26;3.53;;;2.00;;
62903;SDS011;49000;50.698;13.322;2023-02-18T05:35:51;2.90;;;1.97;;
62903;SDS011;49000;50.698;13.322;2023-02-18T05:38:17;2.77;;;1.87;;
62903;SDS011;49000;50.698;13.322;2023-02-18T05:40:42;4.97;;;2.30;;
62903;SDS011;49000;50.698;13.322;2023-02-18T05:43:08;5.27;;;2.70;;
62903;SDS011;49000;50.698;13.322;2023-02-18T05:45:34;4.23;;;2.67;;
62903;SDS011;49000;50.698;13.322;2023-02-18T05:47:59;4.57;;;2.77;;
62903;SDS011;49000;50.698;13.322;2023-02-18T05:50:25;3.13;;;2.37;;
62903;SDS011;49000;50.698;13.322;2023-02-18T05:52:50;4.13;;;2.50;;
62903;SDS011;49000;50.698;13.322;2023-02-18T05:55:16;5.13;;;2.87;;
62903;SDS011;49000;50.698;13.322;2023-02-18T05:57:41;4.63;;;3.00;;
62903;SDS011;49000;50.698;13.322;2023-02-18T06:00:07;4.90;;;3.80;;
62903;SDS011;49000;50.698;13.322;2023-02-18T06:02:36;6.03;;;4.10;;
62903;SDS011;49000;50.698;13.322;2023-02-18T06:05:03;5.60;;;3.77;;
62903;SDS011;49000;50.698;13.322;2023-02-18T06:07:29;7.77;;;5.10;;
62903;SDS011;49000;50.698;13.322;2023-02-18T06:09:55;8.47;;;5.03;;
62903;SDS011;49000;50.698;13.322;2023-02-18T06:12:21;8.83;;;5.47;;
62903;SDS011;49000;50.698;13.322;2023-02-18T06:14:47;8.20;;;5.53;;
62903;SDS011;49000;50.698;13.322;2023-02-18T06:17:12;7.20;;;5.33;;
62903;SDS011;49000;50.698;13.322;2023-02-18T06:19:39;8.93;;;6.53;;
62903;SDS011;49000;50.698;13.322;2023-02-18T06:22:05;9.70;;;6.57;;
62903;SDS011;49000;50.698;13.322;2023-02-18T06:24:31;10.63;;;6.83;;
62903;SDS011;49000;50.698;13.322;2023-02-18T06:26:57;10.57;;;6.80;;
62903;SDS011;49000;50.698;13.322;2023-02-18T06:29:23;10.43;;;6.93;;
62903;SDS011;49000;50.698;13.322;2023-02-18T06:31:48;11.70;;;7.07;;
62903;SDS011;49000;50.698;13.322;2023-02-18T06:34:14;8.83;;;6.67;;
62903;SDS011;49000;50.698;13.322;2023-02-18T06:36:39;8.50;;;6.43;;
62903;SDS011;49000;50.698;13.322;2023-02-18T06:39:05;9.20;;;6.37;;
62903;SDS011;49000;50.698;13.322;2023-02-18T06:41:31;10.60;;;6.70;;
62903;SDS011;49000;50.698;13.322;2023-02-18T06:43:57;10.37;;;6.40;;
62903;SDS011;49000;50.698;13.322;2023-02-18T06:46:22;7.87;;;6.37;;
62903;SDS011;49000;50.698;13.322;2023-02-18T06:48:48;9.30;;;6.07;;
62903;SDS011;49000;50.698;13.322;2023-02-18T06:51:13;6.53;;;5.33;;
62903;SDS011;49000;50.698;13.322;2023-02-18T06:53:40;8.77;;;5.70;;
62903;SDS011;49000;50.698;13.322;2023-02-18T06:56:06;7.87;;;5.53;;
62903;SDS011;49000;50.698;13.322;2023-02-18T06:58:31;7.20;;;5.53;;
62903;SDS011;49000;50.698;13.322;2023-02-18T07:00:57;7.83;;;6.33;;
62903;SDS011;49000;50.698;13.322;2023-02-18T07:03:22;6.77;;;5.60;;
62903;SDS011;49000;50.698;13.322;2023-02-18T07:05:48;6.80;;;5.30;;
62903;SDS011;49000;50.698;13.322;2023-02-18T07:08:13;7.63;;;5.17;;
62903;SDS011;49000;50.698;13.322;2023-02-18T07:10:39;7.07;;;4.80;;
62903;SDS011;49000;50.698;13.322;2023-02-18T07:13:04;6.03;;;4.80;;
62903;SDS011;49000;50.698;13.322;2023-02-18T07:15:30;7.07;;;4.97;;
62903;SDS011;49000;50.698;13.322;2023-02-18T07:17:56;8.10;;;4.53;;
62903;SDS011;49000;50.698;13.322;2023-02-18T07:20:21;6.57;;;5.17;;
62903;SDS011;49000;50.698;13.322;2023-02-18T07:22:47;6.40;;;4.47;;
62903;SDS011;49000;50.698;13.322;2023-02-18T07:25:13;5.90;;;4.40;;
62903;SDS011;49000;50.698;13.322;2023-02-18T07:27:39;5.30;;;4.50;;
62903;SDS011;49000;50.698;13.322;2023-02-18T07:30:05;5.40;;;4.57;;
62903;SDS011;49000;50.698;13.322;2023-02-18T07:32:31;5.03;;;4.03;;
62903;SDS011;49000;50.698;13.322;2023-02-18T07:34:56;7.57;;;5.43;;
62903;SDS011;49000;50.698;13.322;2023-02-18T07:37:22;5.97;;;4.70;;
62903;SDS011;49000;50.698;13.322;2023-02-18T07:39:47;6.77;;;5.60;;
62903;SDS011;49000;50.698;13.322;2023-02-18T07:42:13;5.47;;;4.13;;
62903;SDS011;49000;50.698;13.322;2023-02-18T07:44:39;8.03;;;5.60;;
62903;SDS011;49000;50.698;13.322;2023-02-18T07:47:05;5.73;;;4.40;;
62903;SDS011;49000;50.698;13.322;2023-02-18T07:49:32;5.50;;;4.00;;
62903;SDS011;49000;50.698;13.322;2023-02-18T07:51:58;4.40;;;3.80;;
62903;SDS011;49000;50.698;13.322;2023-02-18T07:54:24;4.97;;;4.00;;
62903;SDS011;49000;50.698;13.322;2023-02-18T07:56:50;5.87;;;3.93;;
62903;SDS011;49000;50.698;13.322;2023-02-18T07:59:15;6.27;;;4.10;;
62903;SDS011;49000;50.698;13.322;2023-02-18T08:01:41;5.73;;;4.13;;
62903;SDS011;49000;50.698;13.322;2023-02-18T08:04:06;3.50;;;3.20;;
62903;SDS011;49000;50.698;13.322;2023-02-18T08:06:36;4.90;;;3.63;;
62903;SDS011;49000;50.698;13.322;2023-02-18T08:09:06;4.80;;;3.53;;
62903;SDS011;49000;50.698;13.322;2023-02-18T08:11:32;4.53;;;3.20;;
62903;SDS011;49000;50.698;13.322;2023-02-18T08:13:58;6.03;;;3.10;;
62903;SDS011;49000;50.698;13.322;2023-02-18T08:16:23;3.30;;;2.93;;
62903;SDS011;49000;50.698;13.322;2023-02-18T08:18:50;3.93;;;2.93;;
62903;SDS011;49000;50.698;13.322;2023-02-18T08:21:17;3.30;;;2.70;;
62903;SDS011;49000;50.698;13.322;2023-02-18T08:23:43;3.17;;;2.77;;
62903;SDS011;49000;50.698;13.322;2023-02-18T08:26:09;3.40;;;3.00;;
62903;SDS011;49000;50.698;13.322;2023-02-18T08:28:35;2.50;;;2.30;;
62903;SDS011;49000;50.698;13.322;2023-02-18T08:31:01;2.90;;;2.30;;
62903;SDS011;49000;50.698;13.322;2023-02-18T08:33:26;2.27;;;2.07;;
62903;SDS011;49000;50.698;13.322;2023-02-18T08:35:52;3.00;;;2.37;;
62903;SDS011;49000;50.698;13.322;2023-02-18T08:38:18;2.40;;;2.10;;
62903;SDS011;49000;50.698;13.322;2023-02-18T08:40:45;2.63;;;1.97;;
62903;SDS011;49000;50.698;13.322;2023-02-18T08:43:10;2.30;;;1.90;;
62903;SDS011;49000;50.698;13.322;2023-02-18T08:45:37;2.17;;;1.80;;
62903;SDS011;49000;50.698;13.322;2023-02-18T08:48:04;2.40;;;2.10;;
62903;SDS011;49000;50.698;13.322;2023-02-18T08:50:30;2.90;;;1.90;;
62903;SDS011;49000;50.698;13.322;2023-02-18T08:52:56;2.07;;;1.60;;
62903;SDS011;49000;50.698;13.322;2023-02-18T08:55:24;2.47;;;1.30;;
62903;SDS011;49000;50.698;13.322;2023-02-18T08:57:50;1.40;;;1.27;;
62903;SDS011;49000;50.698;13.322;2023-02-18T09:00:16;1.20;;;1.10;;
62903;SDS011;49000;50.698;13.322;2023-02-18T09:02:42;1.37;;;0.97;;
62903;SDS011;49000;50.698;13.322;2023-02-18T09:05:08;1.07;;;0.90;;
62903;SDS011;49000;50.698;13.322;2023-02-18T09:07:36;1.50;;;1.10;;
62903;SDS011;49000;50.698;13.322;2023-02-18T09:10:01;1.53;;;1.27;;
62903;SDS011;49000;50.698;13.322;2023-02-18T09:12:28;1.23;;;0.97;;
62903;SDS011;49000;50.698;13.322;2023-02-18T09:14:53;2.07;;;1.00;;
62903;SDS011;49000;50.698;13.322;2023-02-18T09:17:19;2.00;;;1.10;;
62903;SDS011;49000;50.698;13.322;2023-02-18T09:19:44;0.80;;;0.70;;
62903;SDS011;49000;50.698;13.322;2023-02-18T09:22:10;0.90;;;0.60;;
62903;SDS011;49000;50.698;13.322;2023-02-18T09:24:39;1.00;;;0.70;;
62903;SDS011;49000;50.698;13.322;2023-02-18T09:27:05;1.57;;;0.60;;
62903;SDS011;49000;50.698;13.322;2023-02-18T09:29:31;0.60;;;0.60;;
62903;SDS011;49000;50.698;13.322;2023-02-18T09:32:00;1.60;;;0.70;;
62903;SDS011;49000;50.698;13.322;2023-02-18T09:34:26;1.13;;;0.50;;
62903;SDS011;49000;50.698;13.322;2023-02-18T09:36:52;1.73;;;1.00;;
62903;SDS011;49000;50.698;13.322;2023-02-18T09:39:18;2.73;;;1.93;;
62903;SDS011;49000;50.698;13.322;2023-02-18T09:41:58;2.20;;;1.40;;
62903;SDS011;49000;50.698;13.322;2023-02-18T09:44:28;1.37;;;0.80;;
62903;SDS011;49000;50.698;13.322;2023-02-18T09:47:28;1.33;;;1.00;;
62903;SDS011;49000;50.698;13.322;2023-02-18T09:50:21;1.07;;;0.63;;
62903;SDS011;49000;50.698;13.322;2023-02-18T09:52:50;1.50;;;0.83;;
62903;SDS011;49000;50.698;13.322;2023-02-18T09:55:22;1.87;;;1.20;;
62903;SDS011;49000;50.698;13.322;2023-02-18T09:57:49;1.00;;;0.87;;
62903;SDS011;49000;50.698;13.322;2023-02-18T10:00:31;0.33;;;0.23;;
62903;SDS011;49000;50.698;13.322;2023-02-18T10:05:28;0.70;;;0.40;;
62903;SDS011;49000;50.698;13.322;2023-02-18T10:07:57;0.30;;;0.30;;
62903;SDS011;49000;50.698;13.322;2023-02-18T10:13:02;0.33;;;0.30;;
62903;SDS011;49000;50.698;13.322;2023-02-18T10:15:30;0.30;;;0.30;;
62903;SDS011;49000;50.698;13.322;2023-02-18T10:17:56;0.40;;;0.30;;
62903;SDS011;49000;50.698;13.322;2023-02-18T10:20:24;0.40;;;0.30;;
62903;SDS011;49000;50.698;13.322;2023-02-18T10:22:53;0.70;;;0.30;;
62903;SDS011;49000;50.698;13.322;2023-02-18T10:25:21;0.33;;;0.20;;
62903;SDS011;49000;50.698;13.322;2023-02-18T10:27:48;0.40;;;0.30;;
62903;SDS011;49000;50.698;13.322;2023-02-18T10:32:48;0.30;;;0.20;;
62903;SDS011;49000;50.698;13.322;2023-02-18T10:35:23;0.57;;;0.27;;
62903;SDS011;49000;50.698;13.322;2023-02-18T10:37:57;0.30;;;0.20;;
62903;SDS011;49000;50.698;13.322;2023-02-18T10:40:49;0.40;;;0.20;;
62903;SDS011;49000;50.698;13.322;2023-02-18T10:45:56;1.13;;;0.70;;
62903;SDS011;49000;50.698;13.322;2023-02-18T10:51:23;0.57;;;0.23;;
62903;SDS011;49000;50.698;13.322;2023-02-18T10:53:52;0.97;;;0.40;;
62903;SDS011;49000;50.698;13.322;2023-02-18T10:59:00;0.50;;;0.40;;
62903;SDS011;49000;50.698;13.322;2023-02-18T11:01:33;0.63;;;0.53;;
62903;SDS011;49000;50.698;13.322;2023-02-18T11:04:12;0.60;;;0.50;;
62903;SDS011;49000;50.698;13.322;2023-02-18T11:06:41;1.27;;;0.60;;
62903;SDS011;49000;50.698;13.322;2023-02-18T11:09:54;1.27;;;0.60;;
62903;SDS011;49000;50.698;13.322;2023-02-18T11:12:06;1.33;;;0.60;;
62903;SDS011;49000;50.698;13.322;2023-02-18T11:14:40;1.20;;;1.10;;
62903;SDS011;49000;50.698;13.322;2023-02-18T11:17:08;1.63;;;1.17;;
62903;SDS011;49000;50.698;13.322;2023-02-18T11:19:41;3.13;;;1.20;;
62903;SDS011;49000;50.698;13.322;2023-02-18T11:22:13;1.37;;;1.10;;
62903;SDS011;49000;50.698;13.322;2023-02-18T11:24:42;1.87;;;1.40;;
62903;SDS011;49000;50.698;13.322;2023-02-18T11:27:45;3.23;;;1.70;;
62903;SDS011;49000;50.698;13.322;2023-02-18T11:30:19;1.67;;;1.50;;
62903;SDS011;49000;50.698;13.322;2023-02-18T11:33:06;2.23;;;1.77;;
62903;SDS011;49000;50.698;13.322;2023-02-18T11:35:51;2.13;;;1.50;;
62903;SDS011;49000;50.698;13.322;2023-02-18T11:38:27;3.30;;;2.30;;
62903;SDS011;49000;50.698;13.322;2023-02-18T11:41:02;2.17;;;1.83;;
62903;SDS011;49000;50.698;13.322;2023-02-18T11:43:32;2.13;;;1.73;;
62903;SDS011;49000;50.698;13.322;2023-02-18T11:46:15;2.43;;;2.10;;
62903;SDS011;49000;50.698;13.322;2023-02-18T11:48:43;3.00;;;2.00;;
62903;SDS011;49000;50.698;13.322;2023-02-18T11:51:17;2.00;;;1.80;;
62903;SDS011;49000;50.698;13.322;2023-02-18T11:53:58;2.40;;;2.07;;
62903;SDS011;49000;50.698;13.322;2023-02-18T11:56:45;2.67;;;2.23;;
62903;SDS011;49000;50.698;13.322;2023-02-18T11:59:30;3.90;;;2.43;;
62903;SDS011;49000;50.698;13.322;2023-02-18T12:04:42;2.73;;;2.27;;
62903;SDS011;49000;50.698;13.322;2023-02-18T12:07:20;3.03;;;2.20;;
62903;SDS011;49000;50.698;13.322;2023-02-18T12:09:51;3.50;;;3.13;;
62903;SDS011;49000;50.698;13.322;2023-02-18T12:12:31;3.60;;;3.17;;
62903;SDS011;49000;50.698;13.322;2023-02-18T12:15:07;4.13;;;3.27;;
62903;SDS011;49000;50.698;13.322;2023-02-18T12:17:45;4.87;;;3.97;;
62903;SDS011;49000;50.698;13.322;2023-02-18T12:20:26;5.10;;;3.17;;
62903;SDS011;49000;50.698;13.322;2023-02-18T12:22:59;4.23;;;3.00;;
62903;SDS011;49000;50.698;13.322;2023-02-18T12:25:51;4.23;;;3.03;;
62903;SDS011;49000;50.698;13.322;2023-02-18T12:29:04;4.97;;;3.70;;
62903;SDS011;49000;50.698;13.322;2023-02-18T12:31:40;6.03;;;3.50;;
62903;SDS011;49000;50.698;13.322;2023-02-18T12:54:22;4.80;;;3.50;;
62903;SDS011;49000;50.698;13.322;2023-02-18T12:57:38;3.43;;;2.73;;
62903;SDS011;49000;50.698;13.322;2023-02-18T13:08:31;4.33;;;2.53;;
62903;SDS011;49000;50.698;13.322;2023-02-18T13:11:11;2.60;;;2.07;;
62903;SDS011;49000;50.698;13.322;2023-02-18T13:16:38;3.40;;;2.10;;
62903;SDS011;49000;50.698;13.322;2023-02-18T13:19:22;3.67;;;2.17;;
62903;SDS011;49000;50.698;13.322;2023-02-18T13:21:55;2.77;;;1.97;;
62903;SDS011;49000;50.698;13.322;2023-02-18T13:24:26;3.20;;;2.27;;
62903;SDS011;49000;50.698;13.322;2023-02-18T13:27:06;2.30;;;1.93;;
62903;SDS011;49000;50.698;13.322;2023-02-18T13:29:42;2.03;;;1.80;;
62903;SDS011;49000;50.698;13.322;2023-02-18T13:32:41;5.10;;;1.77;;
62903;SDS011;49000;50.698;13.322;2023-02-18T13:35:21;2.93;;;1.80;;
62903;SDS011;49000;50.698;13.322;2023-02-18T13:40:54;2.70;;;1.37;;
62903;SDS011;49000;50.698;13.322;2023-02-18T13:43:31;4.50;;;1.40;;
62903;SDS011;49000;50.698;13.322;2023-02-18T13:48:49;1.87;;;1.10;;
62903;SDS011;49000;50.698;13.322;2023-02-18T13:54:17;1.60;;;1.20;;
62903;SDS011;49000;50.698;13.322;2023-02-18T13:56:44;3.17;;;1.40;;
62903;SDS011;49000;50.698;13.322;2023-02-18T14:01:48;1.10;;;1.00;;
62903;SDS011;49000;50.698;13.322;2023-02-18T14:09:42;2.63;;;1.10;;
62903;SDS011;49000;50.698;13.322;2023-02-18T14:14:42;1.37;;;1.10;;
62903;SDS011;49000;50.698;13.322;2023-02-18T14:19:42;2.30;;;1.30;;
62903;SDS011;49000;50.698;13.322;2023-02-18T14:22:23;1.63;;;1.37;;
62903;SDS011;49000;50.698;13.322;2023-02-18T14:25:15;1.77;;;0.90;;
62903;SDS011;49000;50.698;13.322;2023-02-18T14:27:44;1.20;;;1.00;;
62903;SDS011;49000;50.698;13.322;2023-02-18T14:30:15;1.20;;;0.90;;
62903;SDS011;49000;50.698;13.322;2023-02-18T14:32:44;1.20;;;0.80;;
62903;SDS011;49000;50.698;13.322;2023-02-18T14:38:06;1.30;;;0.87;;
62903;SDS011;49000;50.698;13.322;2023-02-18T14:40:47;1.10;;;0.93;;
62903;SDS011;49000;50.698;13.322;2023-02-18T14:43:23;2.10;;;0.90;;
62903;SDS011;49000;50.698;13.322;2023-02-18T14:46:34;2.10;;;1.10;;
62903;SDS011;49000;50.698;13.322;2023-02-18T14:52:33;2.13;;;1.70;;
62903;SDS011;49000;50.698;13.322;2023-02-18T14:55:05;2.40;;;1.37;;
62903;SDS011;49000;50.698;13.322;2023-02-18T14:57:43;2.83;;;2.53;;
62903;SDS011;49000;50.698;13.322;2023-02-18T15:00:14;1.57;;;1.20;;
62903;SDS011;49000;50.698;13.322;2023-02-18T15:02:41;2.00;;;0.90;;
62903;SDS011;49000;50.698;13.322;2023-02-18T15:10:20;1.10;;;0.90;;
62903;SDS011;49000;50.698;13.322;2023-02-18T15:12:46;2.97;;;1.20;;
62903;SDS011;49000;50.698;13.322;2023-02-18T15:15:12;13.33;;;7.40;;
62903;SDS011;49000;50.698;13.322;2023-02-18T15:17:43;1.27;;;1.10;;
62903;SDS011;49000;50.698;13.322;2023-02-18T15:20:11;1.97;;;1.03;;
62903;SDS011;49000;50.698;13.322;2023-02-18T15:22:37;7.37;;;3.20;;
62903;SDS011;49000;50.698;13.322;2023-02-18T15:25:03;3.53;;;1.00;;
62903;SDS011;49000;50.698;13.322;2023-02-18T15:27:30;1.83;;;0.93;;
62903;SDS011;49000;50.698;13.322;2023-02-18T15:32:54;1.80;;;1.10;;
62903;SDS011;49000;50.698;13.322;2023-02-18T15:35:28;0.90;;;0.80;;
62903;SDS011;49000;50.698;13.322;2023-02-18T15:37:56;1.03;;;0.90;;
62903;SDS011;49000;50.698;13.322;2023-02-18T15:40:25;1.60;;;1.00;;
62903;SDS011;49000;50.698;13.322;2023-02-18T15:42:55;0.93;;;0.63;;
62903;SDS011;49000;50.698;13.322;2023-02-18T15:45:24;2.40;;;0.90;;
62903;SDS011;49000;50.698;13.322;2023-02-18T15:48:05;0.97;;;0.80;;
62903;SDS011;49000;50.698;13.322;2023-02-18T15:50:32;0.80;;;0.60;;
62903;SDS011;49000;50.698;13.322;2023-02-18T15:53:05;0.70;;;0.60;;
62903;SDS011;49000;50.698;13.322;2023-02-18T15:55:40;1.60;;;0.90;;
62903;SDS011;49000;50.698;13.322;2023-02-18T16:03:45;1.33;;;0.90;;
62903;SDS011;49000;50.698;13.322;2023-02-18T16:06:15;0.70;;;0.70;;
62903;SDS011;49000;50.698;13.322;2023-02-18T16:09:02;1.10;;;0.80;;
62903;SDS011;49000;50.698;13.322;2023-02-18T16:11:41;0.80;;;0.70;;
62903;SDS011;49000;50.698;13.322;2023-02-18T16:14:32;0.97;;;0.80;;
62903;SDS011;49000;50.698;13.322;2023-02-18T16:17:19;1.87;;;0.63;;
62903;SDS011;49000;50.698;13.322;2023-02-18T16:22:22;1.00;;;0.90;;
62903;SDS011;49000;50.698;13.322;2023-02-18T16:24:53;1.57;;;0.70;;
62903;SDS011;49000;50.698;13.322;2023-02-18T16:27:35;0.83;;;0.70;;
62903;SDS011;49000;50.698;13.322;2023-02-18T16:30:06;1.10;;;0.70;;
62903;SDS011;49000;50.698;13.322;2023-02-18T16:32:40;1.87;;;1.03;;
62903;SDS011;49000;50.698;13.322;2023-02-18T16:35:06;1.17;;;0.97;;
62903;SDS011;49000;50.698;13.322;2023-02-18T16:37:32;0.90;;;0.73;;
62903;SDS011;49000;50.698;13.322;2023-02-18T16:42:49;1.03;;;0.87;;
62903;SDS011;49000;50.698;13.322;2023-02-18T16:45:15;1.23;;;0.80;;
62903;SDS011;49000;50.698;13.322;2023-02-18T16:47:41;2.17;;;0.73;;
62903;SDS011;49000;50.698;13.322;2023-02-18T16:50:18;1.90;;;0.90;;
62903;SDS011;49000;50.698;13.322;2023-02-18T16:52:45;2.13;;;0.93;;
62903;SDS011;49000;50.698;13.322;2023-02-18T16:55:15;1.93;;;1.00;;
62903;SDS011;49000;50.698;13.322;2023-02-18T16:57:41;3.27;;;1.03;;
62903;SDS011;49000;50.698;13.322;2023-02-18T17:00:07;1.67;;;1.00;;
62903;SDS011;49000;50.698;13.322;2023-02-18T17:02:33;1.30;;;1.00;;